createdAt,value
2023-07-22T00:01:01.587Z,3.30
2023-07-22T00:03:36.575Z,3.20
2023-07-22T00:06:07.078Z,3.00
2023-07-22T00:08:36.173Z,3.10
2023-07-22T00:11:08.102Z,3.40
2023-07-22T00:13:37.020Z,3.40
2023-07-22T00:16:05.707Z,3.20
2023-07-22T00:18:34.921Z,3.20
2023-07-22T00:21:03.918Z,3.50
2023-07-22T00:23:32.635Z,3.50
2023-07-22T00:26:01.397Z,2.90
2023-07-22T00:28:30.150Z,2.80
2023-07-22T00:30:58.886Z,3.50
2023-07-22T00:33:28.278Z,3.20
2023-07-22T00:35:57.691Z,3.60
2023-07-22T00:38:26.462Z,3.20
2023-07-22T00:40:55.375Z,3.40
2023-07-22T00:43:24.079Z,3.50
2023-07-22T00:45:53.077Z,2.90
2023-07-22T00:48:22.072Z,2.70
2023-07-22T00:50:50.954Z,3.80
2023-07-22T00:53:19.882Z,3.60
2023-07-22T00:55:48.629Z,4.00
2023-07-22T00:58:17.390Z,3.30
2023-07-22T01:00:46.196Z,3.50
2023-07-22T01:03:15.241Z,2.70
2023-07-22T01:05:44.230Z,3.40
2023-07-22T01:08:12.907Z,3.50
2023-07-22T01:10:41.597Z,3.40
2023-07-22T01:13:10.349Z,3.90
2023-07-22T01:15:39.490Z,3.30
2023-07-22T01:18:08.867Z,2.80
2023-07-22T01:20:38.205Z,2.90
2023-07-22T01:23:07.896Z,3.30
2023-07-22T01:25:36.710Z,3.50
2023-07-22T01:28:10.049Z,3.40
2023-07-22T01:30:38.774Z,3.70
2023-07-22T01:33:07.504Z,3.60
2023-07-22T01:35:36.190Z,3.40
2023-07-22T01:38:04.994Z,3.10
2023-07-22T01:40:33.672Z,2.70
2023-07-22T01:43:02.392Z,3.10
2023-07-22T01:45:31.087Z,3.30
2023-07-22T01:47:59.816Z,3.20
2023-07-22T01:50:28.894Z,3.40
2023-07-22T01:52:57.569Z,3.40
2023-07-22T01:55:26.924Z,3.00
2023-07-22T01:57:55.973Z,2.70
2023-07-22T02:00:24.695Z,3.20
2023-07-22T02:02:53.541Z,3.50
2023-07-22T02:05:22.380Z,4.30
2023-07-22T02:07:52.187Z,3.40
2023-07-22T02:10:20.877Z,3.40
2023-07-22T02:12:50.056Z,3.40
2023-07-22T02:15:18.848Z,3.60
2023-07-22T02:17:47.654Z,4.00
2023-07-22T02:20:16.426Z,4.00
2023-07-22T02:22:45.132Z,3.80
2023-07-22T02:25:15.778Z,3.70
2023-07-22T02:27:44.812Z,3.00
2023-07-22T02:30:13.542Z,3.60
2023-07-22T02:32:42.481Z,3.80
2023-07-22T02:35:11.702Z,3.80
2023-07-22T02:37:40.619Z,4.00
2023-07-22T02:40:09.420Z,3.40
2023-07-22T02:42:38.494Z,3.40
2023-07-22T02:45:09.133Z,3.60
2023-07-22T02:47:37.968Z,4.10
2023-07-22T02:50:07.694Z,4.30
2023-07-22T02:52:37.189Z,4.40
2023-07-22T02:55:07.323Z,4.20
2023-07-22T02:57:36.128Z,3.70
2023-07-22T03:00:14.599Z,3.80
2023-07-22T03:02:43.315Z,4.10
2023-07-22T03:05:12.306Z,4.00
2023-07-22T03:07:41.815Z,4.30
2023-07-22T03:10:10.742Z,4.00
2023-07-22T03:12:39.754Z,3.80
2023-07-22T03:15:10.241Z,3.80
2023-07-22T03:17:40.026Z,3.30
2023-07-22T03:20:16.037Z,4.10
2023-07-22T03:22:45.056Z,4.20
2023-07-22T03:25:15.649Z,4.20
2023-07-22T03:27:45.440Z,4.70
2023-07-22T03:30:18.136Z,4.40
2023-07-22T03:35:16.026Z,3.80
2023-07-22T03:37:44.742Z,4.10
2023-07-22T03:40:28.029Z,4.10
2023-07-22T03:42:58.682Z,4.20
2023-07-22T03:45:27.561Z,3.90
2023-07-22T03:47:59.985Z,4.70
2023-07-22T03:50:29.233Z,4.10
2023-07-22T03:52:58.419Z,3.80
2023-07-22T03:55:27.311Z,3.60
2023-07-22T03:57:56.246Z,4.20
2023-07-22T04:00:25.083Z,4.10
2023-07-22T04:02:54.007Z,4.90
2023-07-22T04:05:22.992Z,4.20
2023-07-22T04:07:51.826Z,4.70
2023-07-22T04:10:20.696Z,4.30
2023-07-22T04:12:49.440Z,3.60
2023-07-22T04:15:18.658Z,3.50
2023-07-22T04:17:48.161Z,3.90
2023-07-22T04:20:17.023Z,3.90
2023-07-22T04:22:45.754Z,4.10
2023-07-22T04:25:15.653Z,4.00
2023-07-22T04:27:44.491Z,4.20
2023-07-22T04:30:13.299Z,4.00
2023-07-22T04:32:42.002Z,3.40
2023-07-22T04:35:10.831Z,3.20
2023-07-22T04:37:39.642Z,3.70
2023-07-22T04:40:10.395Z,4.30
2023-07-22T04:42:39.092Z,4.00
2023-07-22T04:45:08.399Z,3.60
2023-07-22T04:47:37.658Z,4.20
2023-07-22T04:50:12.608Z,3.70
2023-07-22T04:52:45.842Z,3.30
2023-07-22T04:55:15.151Z,2.80
2023-07-22T04:57:46.090Z,3.30
2023-07-22T05:00:17.290Z,3.20
2023-07-22T05:02:47.187Z,3.40
2023-07-22T05:05:16.777Z,3.30
2023-07-22T05:07:46.771Z,2.80
2023-07-22T05:10:15.668Z,3.20
2023-07-22T05:12:44.420Z,3.20
2023-07-22T05:15:13.700Z,2.50
2023-07-22T05:17:42.698Z,3.00
2023-07-22T05:20:11.772Z,3.10
2023-07-22T05:22:40.797Z,3.20
2023-07-22T05:25:10.864Z,3.40
2023-07-22T05:27:40.540Z,3.00
2023-07-22T05:30:16.219Z,3.20
2023-07-22T05:32:53.989Z,3.20
2023-07-22T05:35:22.803Z,3.20
2023-07-22T05:37:51.460Z,3.10
2023-07-22T05:40:20.182Z,2.20
2023-07-22T05:42:48.881Z,3.10
2023-07-22T05:45:17.728Z,3.10
2023-07-22T05:47:46.561Z,3.30
2023-07-22T05:50:15.395Z,2.90
2023-07-22T05:52:45.043Z,3.30
2023-07-22T05:55:13.783Z,3.20
2023-07-22T05:57:42.608Z,2.50
2023-07-22T06:00:14.070Z,3.10
2023-07-22T06:02:43.065Z,2.70
2023-07-22T06:05:11.985Z,3.30
2023-07-22T06:07:40.780Z,3.30
2023-07-22T06:10:09.870Z,3.10
2023-07-22T06:12:39.781Z,3.20
2023-07-22T06:15:09.126Z,3.10
2023-07-22T06:17:38.079Z,3.00
2023-07-22T06:20:07.105Z,3.30
2023-07-22T06:22:35.850Z,3.10
2023-07-22T06:25:05.420Z,3.30
2023-07-22T06:27:34.653Z,2.80
2023-07-22T06:30:03.508Z,2.50
2023-07-22T06:32:32.551Z,2.80
2023-07-22T06:35:01.342Z,2.60
2023-07-22T06:37:30.855Z,2.50
2023-07-22T06:39:59.615Z,2.30
2023-07-22T06:42:28.822Z,2.00
2023-07-22T06:44:57.479Z,2.00
2023-07-22T06:47:26.189Z,1.90
2023-07-22T06:49:55.023Z,1.90
2023-07-22T06:52:24.058Z,1.80
2023-07-22T06:54:52.726Z,1.90
2023-07-22T06:57:21.484Z,1.70
2023-07-22T06:59:51.910Z,1.70
2023-07-22T07:02:20.727Z,1.90
2023-07-22T07:04:49.578Z,1.70
2023-07-22T07:07:18.458Z,1.70
2023-07-22T07:09:47.326Z,2.00
2023-07-22T07:12:15.995Z,1.80
2023-07-22T07:14:44.708Z,1.60
2023-07-22T07:17:13.465Z,1.70
2023-07-22T07:19:42.179Z,1.30
2023-07-22T07:22:10.928Z,1.50
2023-07-22T07:24:39.785Z,1.30
2023-07-22T07:27:08.571Z,1.60
2023-07-22T07:32:09.577Z,1.40
2023-07-22T07:34:38.495Z,1.40
2023-07-22T07:37:07.506Z,1.30
2023-07-22T07:39:36.689Z,1.60
2023-07-22T07:42:06.181Z,1.50
2023-07-22T07:44:34.944Z,1.80
2023-07-22T07:47:03.942Z,1.30
2023-07-22T07:49:32.996Z,1.40
2023-07-22T07:52:04.085Z,1.60
2023-07-22T07:54:35.131Z,1.30
2023-07-22T07:57:04.731Z,1.20
2023-07-22T07:59:33.725Z,1.40
2023-07-22T08:02:04.063Z,1.30
2023-07-22T08:04:33.522Z,1.40
2023-07-22T08:07:10.070Z,1.50
2023-07-22T08:12:12.000Z,1.20
2023-07-22T08:14:43.028Z,1.10
2023-07-22T08:19:44.167Z,1.20
2023-07-22T08:22:14.254Z,1.50
2023-07-22T08:24:43.322Z,1.10
2023-07-22T08:27:12.247Z,1.30
2023-07-22T08:29:40.939Z,1.40
2023-07-22T08:32:09.726Z,1.30
2023-07-22T08:34:38.445Z,1.40
2023-07-22T08:37:07.135Z,1.20
2023-07-22T08:39:35.968Z,1.50
2023-07-22T08:42:05.065Z,0.90
2023-07-22T08:44:37.002Z,1.20
2023-07-22T08:47:09.793Z,1.30
2023-07-22T08:49:38.769Z,1.10
2023-07-22T08:52:07.734Z,1.20
2023-07-22T08:54:37.891Z,1.40
2023-07-22T08:57:07.994Z,2.00
2023-07-22T08:59:37.206Z,1.20
2023-07-22T09:02:06.608Z,1.30
2023-07-22T09:04:35.301Z,1.00
2023-07-22T09:07:04.609Z,1.10
2023-07-22T09:09:33.444Z,1.20
2023-07-22T09:12:02.605Z,1.40
2023-07-22T09:14:36.701Z,1.10
2023-07-22T09:17:07.049Z,1.10
2023-07-22T09:19:35.926Z,1.00
2023-07-22T09:22:04.795Z,1.20
2023-07-22T09:24:33.635Z,1.10
2023-07-22T09:27:02.450Z,1.10
2023-07-22T09:29:38.362Z,1.10
2023-07-22T09:32:07.669Z,1.10
2023-07-22T09:34:36.717Z,0.90
2023-07-22T09:37:06.518Z,0.80
2023-07-22T09:39:36.175Z,0.90
2023-07-22T09:42:07.157Z,0.80
2023-07-22T09:44:38.443Z,0.90
2023-07-22T09:47:09.478Z,0.80
2023-07-22T09:49:42.253Z,0.90
2023-07-22T09:52:14.972Z,0.60
2023-07-22T09:54:51.850Z,0.80
2023-07-22T09:57:23.644Z,0.60
2023-07-22T09:59:54.068Z,0.60
2023-07-22T10:02:23.736Z,0.80
2023-07-22T10:04:53.810Z,0.60
2023-07-22T10:07:24.620Z,0.80
2023-07-22T10:09:55.612Z,0.50
2023-07-22T10:12:28.089Z,0.60
2023-07-22T10:14:58.408Z,0.60
2023-07-22T10:17:28.689Z,0.50
2023-07-22T10:19:57.714Z,0.60
2023-07-22T10:22:29.240Z,0.60
2023-07-22T10:24:58.513Z,0.60
2023-07-22T10:27:28.808Z,0.60
2023-07-22T10:29:58.093Z,0.60
2023-07-22T10:32:32.480Z,0.60
2023-07-22T10:35:01.405Z,0.60
2023-07-22T10:37:30.945Z,0.60
2023-07-22T10:40:23.167Z,0.50
2023-07-22T10:42:59.747Z,0.50
2023-07-22T10:45:30.045Z,0.50
2023-07-22T10:48:07.439Z,0.50
2023-07-22T10:50:44.264Z,0.60
2023-07-22T10:53:33.414Z,0.50
2023-07-22T10:56:08.897Z,0.40
2023-07-22T10:58:46.433Z,0.40
2023-07-22T11:01:28.883Z,0.40
2023-07-22T11:04:14.807Z,0.50
2023-07-22T11:06:47.196Z,0.50
2023-07-22T11:09:31.587Z,0.60
2023-07-22T11:12:04.564Z,0.50
2023-07-22T11:14:38.995Z,0.50
2023-07-22T11:17:09.462Z,0.60
2023-07-22T11:19:38.426Z,0.50
2023-07-22T11:22:07.254Z,0.50
2023-07-22T11:24:39.304Z,0.60
2023-07-22T11:27:09.400Z,0.50
2023-07-22T11:29:38.249Z,0.50
2023-07-22T11:32:07.486Z,0.50
2023-07-22T11:34:41.314Z,0.50
2023-07-22T11:37:10.086Z,0.40
2023-07-22T11:39:38.797Z,0.50
2023-07-22T11:42:07.562Z,0.40
2023-07-22T11:44:37.702Z,0.50
2023-07-22T11:47:08.975Z,0.40
2023-07-22T11:49:41.629Z,0.50
2023-07-22T11:52:11.817Z,0.40
2023-07-22T11:54:41.585Z,0.40
2023-07-22T11:57:23.124Z,0.40
2023-07-22T11:59:53.146Z,0.70
2023-07-22T12:02:26.261Z,0.70
2023-07-22T12:04:57.790Z,0.50
2023-07-22T12:07:27.708Z,0.50
2023-07-22T12:09:59.448Z,0.70
2023-07-22T12:12:38.084Z,0.60
2023-07-22T12:15:14.601Z,0.70
2023-07-22T12:17:54.495Z,0.60
2023-07-22T12:20:27.572Z,0.70
2023-07-22T12:22:57.081Z,0.40
2023-07-22T12:25:26.446Z,0.50
2023-07-22T12:27:55.619Z,0.40
2023-07-22T12:30:25.281Z,0.60
2023-07-22T12:32:54.095Z,0.60
2023-07-22T12:35:22.831Z,0.50
2023-07-22T12:37:51.539Z,0.50
2023-07-22T12:40:20.326Z,0.30
2023-07-22T12:42:49.093Z,0.80
2023-07-22T12:45:17.947Z,0.70
2023-07-22T12:47:46.685Z,0.50
2023-07-22T12:50:15.422Z,0.50
2023-07-22T12:52:44.153Z,0.70
2023-07-22T12:55:12.843Z,1.00
2023-07-22T12:57:41.550Z,0.70
2023-07-22T13:00:12.323Z,0.60
2023-07-22T13:02:41.293Z,0.70
2023-07-22T13:05:11.020Z,0.60
2023-07-22T13:07:39.831Z,0.80
2023-07-22T13:10:12.049Z,0.70
2023-07-22T13:12:40.972Z,0.60
2023-07-22T13:15:09.997Z,0.80
2023-07-22T13:17:38.862Z,0.70
2023-07-22T13:20:12.936Z,0.90
2023-07-22T13:22:41.883Z,0.80
2023-07-22T13:25:10.593Z,0.90
2023-07-22T13:27:41.612Z,0.60
2023-07-22T13:30:10.632Z,0.80
2023-07-22T13:32:40.821Z,0.90
2023-07-22T13:35:10.840Z,1.00
2023-07-22T13:37:39.639Z,0.70
2023-07-22T13:40:11.797Z,0.90
2023-07-22T13:42:40.876Z,0.80
2023-07-22T13:45:09.865Z,0.90
2023-07-22T13:47:38.712Z,0.90
2023-07-22T13:50:07.653Z,1.20
2023-07-22T13:52:36.557Z,0.90
2023-07-22T13:55:05.713Z,0.70
2023-07-22T13:57:34.602Z,1.00
2023-07-22T14:00:09.533Z,1.00
2023-07-22T14:02:39.239Z,1.00
2023-07-22T14:05:08.930Z,0.80
2023-07-22T14:07:40.786Z,1.00
2023-07-22T14:10:10.333Z,1.10
2023-07-22T14:12:39.261Z,1.00
2023-07-22T14:15:08.530Z,0.90
2023-07-22T14:17:39.196Z,0.80
2023-07-22T14:20:08.964Z,0.90
2023-07-22T14:22:38.392Z,0.80
2023-07-22T14:25:07.701Z,1.00
2023-07-22T14:27:36.660Z,0.90
2023-07-22T14:30:07.022Z,0.90
2023-07-22T14:32:35.850Z,1.10
2023-07-22T14:35:05.465Z,1.00
2023-07-22T14:37:34.201Z,1.00
2023-07-22T14:40:04.769Z,0.80
2023-07-22T14:42:33.831Z,0.80
2023-07-22T14:45:03.171Z,1.10
2023-07-22T14:47:32.224Z,0.90
2023-07-22T14:50:01.211Z,1.10
2023-07-22T14:52:30.260Z,1.10
2023-07-22T14:54:59.354Z,1.10
2023-07-22T14:57:30.471Z,1.10
2023-07-22T14:59:59.421Z,1.20
2023-07-22T15:02:28.399Z,0.90
2023-07-22T15:04:58.390Z,1.80
2023-07-22T15:07:29.425Z,1.00
2023-07-22T15:12:31.976Z,1.30
2023-07-22T15:15:01.986Z,1.10
2023-07-22T15:17:33.046Z,1.20
2023-07-22T15:20:02.040Z,1.20
2023-07-22T15:22:30.943Z,1.10
2023-07-22T15:24:59.960Z,1.20
2023-07-22T15:27:31.276Z,1.20
2023-07-22T15:30:00.417Z,1.20
2023-07-22T15:32:30.808Z,1.10
2023-07-22T15:34:59.773Z,1.10
2023-07-22T15:37:28.724Z,1.20
2023-07-22T15:39:57.528Z,0.90
2023-07-22T15:42:27.373Z,1.10
2023-07-22T15:44:56.203Z,1.00
2023-07-22T15:47:25.342Z,1.10
2023-07-22T15:49:54.497Z,0.70
2023-07-22T15:52:23.931Z,0.90
2023-07-22T15:54:52.712Z,1.10
2023-07-22T15:57:21.522Z,0.90
2023-07-22T15:59:50.271Z,1.00
2023-07-22T16:02:19.054Z,1.00
2023-07-22T16:04:48.464Z,1.20
2023-07-22T16:07:18.046Z,1.00
2023-07-22T16:09:46.930Z,1.20
2023-07-22T16:12:15.624Z,1.10
2023-07-22T16:14:44.341Z,1.10
2023-07-22T16:17:13.080Z,0.90
2023-07-22T16:19:41.752Z,1.20
2023-07-22T16:22:11.294Z,0.90
2023-07-22T16:24:40.060Z,1.10
2023-07-22T16:27:08.756Z,1.20
2023-07-22T16:29:37.524Z,1.30
2023-07-22T16:32:08.041Z,1.20
2023-07-22T16:34:37.061Z,1.20
2023-07-22T16:37:05.933Z,0.90
2023-07-22T16:39:34.670Z,1.10
2023-07-22T16:42:03.409Z,1.20
2023-07-22T16:44:32.081Z,1.30
2023-07-22T16:47:00.792Z,1.20
2023-07-22T16:49:29.718Z,1.20
2023-07-22T16:51:58.397Z,1.30
2023-07-22T16:54:28.906Z,1.10
2023-07-22T16:56:57.814Z,1.30
2023-07-22T16:59:27.019Z,1.10
2023-07-22T17:01:55.854Z,1.20
2023-07-22T17:04:24.679Z,1.00
2023-07-22T17:06:53.401Z,1.10
2023-07-22T17:09:23.430Z,1.30
2023-07-22T17:11:52.200Z,0.90
2023-07-22T17:14:21.073Z,1.40
2023-07-22T17:16:49.772Z,1.20
2023-07-22T17:19:19.529Z,0.90
2023-07-22T17:21:48.425Z,1.20
2023-07-22T17:24:17.469Z,1.20
2023-07-22T17:26:46.222Z,1.20
2023-07-22T17:29:14.956Z,1.30
2023-07-22T17:31:43.769Z,1.20
2023-07-22T17:34:12.540Z,1.30
2023-07-22T17:36:41.885Z,1.20
2023-07-22T17:39:10.971Z,1.20
2023-07-22T17:41:40.865Z,1.20
2023-07-22T17:44:10.842Z,1.10
2023-07-22T17:46:40.760Z,1.20
2023-07-22T17:49:09.508Z,1.40
2023-07-22T17:51:38.257Z,1.10
2023-07-22T17:54:07.142Z,1.00
2023-07-22T17:56:37.218Z,1.30
2023-07-22T17:59:06.127Z,1.30
2023-07-22T18:01:35.161Z,1.00
2023-07-22T18:04:04.106Z,1.10
2023-07-22T18:06:32.868Z,1.10
2023-07-22T18:09:01.581Z,1.20
2023-07-22T18:11:30.857Z,1.10
2023-07-22T18:14:00.313Z,1.00
2023-07-22T18:16:29.094Z,1.30
2023-07-22T18:18:57.780Z,1.50
2023-07-22T18:21:26.831Z,1.30
2023-07-22T18:23:57.252Z,1.00
2023-07-22T18:26:26.033Z,1.40
2023-07-22T18:28:54.820Z,1.70
2023-07-22T18:31:23.788Z,1.10
2023-07-22T18:33:52.604Z,1.30
2023-07-22T18:36:21.734Z,1.50
2023-07-22T18:38:50.688Z,1.40
2023-07-22T18:41:19.491Z,1.50
2023-07-22T18:43:48.226Z,1.60
2023-07-22T18:46:17.817Z,1.40
2023-07-22T18:48:46.774Z,1.40
2023-07-22T18:51:15.778Z,1.60
2023-07-22T18:53:44.513Z,1.40
2023-07-22T18:56:13.866Z,1.60
2023-07-22T18:58:42.600Z,1.50
2023-07-22T19:01:11.475Z,1.70
2023-07-22T19:03:40.255Z,1.50
2023-07-22T19:06:09.076Z,1.90
2023-07-22T19:08:37.812Z,2.20
2023-07-22T19:11:09.239Z,2.20
2023-07-22T19:13:38.021Z,2.30
2023-07-22T19:16:07.218Z,2.20
2023-07-22T19:18:35.925Z,2.00
2023-07-22T19:21:05.175Z,2.10
2023-07-22T19:23:33.978Z,2.10
2023-07-22T19:26:04.837Z,2.00
2023-07-22T19:28:35.713Z,2.10
2023-07-22T19:31:04.494Z,1.90
2023-07-22T19:33:34.286Z,2.00
2023-07-22T19:36:07.275Z,1.90
2023-07-22T19:38:36.891Z,1.80
2023-07-22T19:41:09.820Z,1.80
2023-07-22T19:43:40.722Z,1.90
2023-07-22T19:46:12.764Z,2.10
2023-07-22T19:48:42.010Z,2.10
2023-07-22T19:51:12.418Z,1.70
2023-07-22T19:53:41.854Z,1.60
2023-07-22T19:56:11.101Z,2.00
2023-07-22T19:58:39.964Z,2.10
2023-07-22T20:01:08.968Z,1.80
2023-07-22T20:03:41.365Z,1.60
2023-07-22T20:06:11.226Z,1.70
2023-07-22T20:08:40.663Z,1.60
2023-07-22T20:11:09.606Z,1.70
2023-07-22T20:13:38.457Z,1.80
2023-07-22T20:16:07.311Z,1.70
2023-07-22T20:18:36.316Z,1.80
2023-07-22T20:21:05.115Z,1.80
2023-07-22T20:23:33.847Z,1.80
2023-07-22T20:26:02.560Z,1.70
2023-07-22T20:28:31.327Z,2.00
2023-07-22T20:31:00.607Z,1.60
2023-07-22T20:33:29.439Z,1.80
2023-07-22T20:35:58.240Z,2.00
2023-07-22T20:38:27.015Z,2.10
2023-07-22T20:40:55.730Z,2.10
2023-07-22T20:43:24.521Z,1.80
2023-07-22T20:45:53.281Z,2.10
2023-07-22T20:48:22.051Z,2.10
2023-07-22T20:50:56.265Z,1.90
2023-07-22T20:53:31.045Z,2.10
2023-07-22T20:56:00.472Z,2.00
2023-07-22T20:58:29.938Z,2.20
2023-07-22T21:01:00.968Z,2.40
2023-07-22T21:03:30.035Z,2.20
2023-07-22T21:05:59.581Z,2.10
2023-07-22T21:08:29.516Z,2.10
2023-07-22T21:11:01.448Z,2.10
2023-07-22T21:13:31.319Z,2.50
2023-07-22T21:16:00.188Z,2.10
2023-07-22T21:18:29.103Z,2.30
2023-07-22T21:20:57.892Z,2.20
2023-07-22T21:23:26.631Z,2.50
2023-07-22T21:25:58.403Z,2.00
2023-07-22T21:28:27.838Z,2.20
2023-07-22T21:30:56.891Z,2.10
2023-07-22T21:33:25.706Z,2.00
2023-07-22T21:35:54.621Z,1.90
2023-07-22T21:38:23.421Z,2.30
2023-07-22T21:40:52.513Z,2.50
2023-07-22T21:43:22.011Z,2.50
2023-07-22T21:45:51.923Z,2.50
2023-07-22T21:48:20.816Z,2.40
2023-07-22T21:50:49.491Z,2.50
2023-07-22T21:53:18.242Z,2.30
2023-07-22T21:55:46.993Z,2.40
2023-07-22T21:58:15.776Z,2.50
2023-07-22T22:00:44.928Z,2.20
2023-07-22T22:03:13.792Z,2.50
2023-07-22T22:05:42.955Z,2.40
2023-07-22T22:08:12.180Z,2.60
2023-07-22T22:10:40.939Z,2.50
2023-07-22T22:13:09.856Z,2.60
2023-07-22T22:15:38.716Z,2.50
2023-07-22T22:18:07.470Z,2.40
2023-07-22T22:20:36.289Z,2.60
2023-07-22T22:23:05.206Z,2.40
2023-07-22T22:25:34.026Z,2.60
2023-07-22T22:28:04.714Z,2.30
2023-07-22T22:30:33.515Z,2.20
2023-07-22T22:33:02.266Z,2.50
2023-07-22T22:35:31.086Z,2.40
2023-07-22T22:37:59.835Z,2.70
2023-07-22T22:40:28.896Z,2.60
2023-07-22T22:42:57.888Z,2.70
2023-07-22T22:45:27.172Z,2.40
2023-07-22T22:47:56.119Z,2.60
2023-07-22T22:50:25.649Z,2.70
2023-07-22T22:52:54.543Z,2.70
2023-07-22T22:55:23.361Z,2.40
2023-07-22T22:57:52.154Z,2.30
2023-07-22T23:00:21.319Z,2.60
2023-07-22T23:02:51.787Z,2.40
2023-07-22T23:05:20.756Z,2.50
2023-07-22T23:07:49.453Z,3.00
2023-07-22T23:10:18.353Z,2.60
2023-07-22T23:12:47.638Z,2.80
2023-07-22T23:15:16.425Z,2.70
2023-07-22T23:17:45.173Z,2.70
2023-07-22T23:20:13.905Z,2.90
2023-07-22T23:22:42.851Z,2.80
2023-07-22T23:25:11.591Z,2.80
2023-07-22T23:27:40.431Z,2.60
2023-07-22T23:30:09.243Z,2.70
2023-07-22T23:32:37.989Z,2.90
2023-07-22T23:35:06.917Z,2.70
2023-07-22T23:37:35.622Z,2.70
2023-07-22T23:40:05.553Z,2.20
2023-07-22T23:42:34.440Z,2.50
2023-07-22T23:45:04.348Z,2.10
2023-07-22T23:47:33.703Z,2.50
2023-07-22T23:50:02.453Z,2.60
2023-07-22T23:52:31.267Z,2.60
2023-07-22T23:55:00.132Z,2.60
2023-07-22T23:57:28.918Z,2.40
2023-07-22T23:59:57.690Z,2.80
